createdAt,value
2023-05-29T00:00:54.448Z,0.00
2023-05-29T00:01:54.454Z,0.00
2023-05-29T00:02:54.483Z,0.00
2023-05-29T00:03:54.676Z,0.00
2023-05-29T00:04:54.535Z,0.00
2023-05-29T00:05:54.682Z,0.00
2023-05-29T00:06:54.390Z,0.00
2023-05-29T00:07:54.377Z,0.00
2023-05-29T00:08:54.353Z,0.00
2023-05-29T00:09:54.342Z,0.00
2023-05-29T00:10:54.347Z,0.00
2023-05-29T00:11:54.318Z,0.00
2023-05-29T00:12:54.317Z,0.00
2023-05-29T00:13:54.373Z,0.00
2023-05-29T00:14:54.294Z,0.00
2023-05-29T00:15:54.509Z,0.00
2023-05-29T00:16:54.312Z,0.00
2023-05-29T00:17:54.280Z,0.00
2023-05-29T00:18:54.264Z,0.00
2023-05-29T00:19:54.235Z,0.00
2023-05-29T00:20:54.301Z,0.00
2023-05-29T00:21:54.224Z,0.00
2023-05-29T00:22:54.201Z,0.00
2023-05-29T00:23:54.204Z,0.00
2023-05-29T00:24:54.179Z,0.00
2023-05-29T00:25:54.339Z,0.00
2023-05-29T00:26:54.178Z,0.00
2023-05-29T00:27:54.135Z,0.00
2023-05-29T00:28:54.133Z,0.00
2023-05-29T00:29:54.141Z,0.00
2023-05-29T00:30:54.126Z,0.00
2023-05-29T00:31:54.137Z,0.00
2023-05-29T00:32:54.118Z,0.00
2023-05-29T00:33:54.077Z,0.00
2023-05-29T00:34:54.072Z,0.00
2023-05-29T00:35:54.218Z,0.00
2023-05-29T00:36:54.082Z,0.00
2023-05-29T00:37:54.052Z,0.00
2023-05-29T00:38:54.024Z,0.00
2023-05-29T00:39:54.024Z,0.00
2023-05-29T00:40:54.014Z,0.00
2023-05-29T00:41:53.993Z,0.00
2023-05-29T00:42:53.999Z,0.00
2023-05-29T00:43:53.982Z,0.00
2023-05-29T00:44:53.960Z,0.00
2023-05-29T00:45:54.009Z,0.00
2023-05-29T00:46:53.954Z,0.00
2023-05-29T00:47:53.958Z,0.00
2023-05-29T00:48:53.948Z,0.00
2023-05-29T00:49:53.916Z,0.00
2023-05-29T00:50:54.125Z,0.00
2023-05-29T00:51:53.876Z,0.00
2023-05-29T00:52:53.895Z,0.00
2023-05-29T00:53:53.873Z,0.00
2023-05-29T00:54:53.893Z,0.00
2023-05-29T00:55:53.867Z,0.00
2023-05-29T00:56:53.831Z,0.00
2023-05-29T00:57:53.822Z,0.00
2023-05-29T00:58:53.813Z,0.00
2023-05-29T00:59:53.790Z,0.00
2023-05-29T01:00:54.187Z,0.00
2023-05-29T01:01:53.812Z,0.00
2023-05-29T01:02:54.085Z,0.00
2023-05-29T01:03:53.781Z,0.00
2023-05-29T01:04:53.753Z,0.00
2023-05-29T01:05:53.749Z,0.00
2023-05-29T01:06:53.734Z,0.00
2023-05-29T01:07:53.713Z,0.00
2023-05-29T01:08:53.693Z,0.00
2023-05-29T01:09:53.713Z,0.00
2023-05-29T01:10:53.798Z,0.00
2023-05-29T01:11:53.682Z,0.00
2023-05-29T01:12:53.669Z,0.00
2023-05-29T01:13:53.692Z,0.00
2023-05-29T01:14:53.655Z,0.00
2023-05-29T01:15:53.691Z,0.00
2023-05-29T01:16:53.603Z,0.00
2023-05-29T01:17:53.651Z,0.00
2023-05-29T01:18:53.585Z,0.00
2023-05-29T01:19:53.577Z,0.00
2023-05-29T01:20:53.898Z,0.00
2023-05-29T01:21:53.572Z,0.00
2023-05-29T01:22:53.532Z,0.00
2023-05-29T01:23:53.535Z,0.00
2023-05-29T01:24:53.525Z,0.00
2023-05-29T01:25:53.517Z,0.00
2023-05-29T01:26:53.506Z,0.00
2023-05-29T01:27:53.484Z,0.00
2023-05-29T01:28:53.495Z,0.00
2023-05-29T01:29:53.463Z,0.00
2023-05-29T01:30:53.670Z,0.00
2023-05-29T01:31:53.521Z,0.00
2023-05-29T01:32:53.456Z,0.00
2023-05-29T01:33:53.432Z,0.00
2023-05-29T01:34:53.435Z,0.00
2023-05-29T01:35:53.402Z,0.00
2023-05-29T01:36:53.410Z,0.00
2023-05-29T01:37:55.282Z,0.00
2023-05-29T01:38:53.380Z,0.00
2023-05-29T01:39:53.377Z,0.00
2023-05-29T01:40:53.626Z,0.00
2023-05-29T01:41:53.332Z,0.00
2023-05-29T01:42:53.327Z,0.00
2023-05-29T01:43:53.338Z,0.00
2023-05-29T01:44:53.302Z,0.00
2023-05-29T01:45:53.288Z,0.00
2023-05-29T01:46:53.372Z,0.00
2023-05-29T01:47:53.322Z,0.00
2023-05-29T01:48:53.258Z,0.00
2023-05-29T01:49:53.264Z,0.00
2023-05-29T01:50:53.397Z,0.00
2023-05-29T01:51:53.256Z,0.00
2023-05-29T01:52:53.237Z,0.00
2023-05-29T01:53:53.215Z,0.00
2023-05-29T01:54:53.208Z,0.00
2023-05-29T01:55:53.206Z,0.00
2023-05-29T01:56:53.182Z,0.00
2023-05-29T01:57:53.170Z,0.00
2023-05-29T01:58:53.156Z,0.00
2023-05-29T01:59:53.150Z,0.00
2023-05-29T02:00:53.409Z,0.00
2023-05-29T02:01:53.142Z,0.00
2023-05-29T02:02:53.178Z,0.00
2023-05-29T02:03:53.124Z,0.00
2023-05-29T02:04:53.098Z,0.00
2023-05-29T02:05:53.089Z,0.00
2023-05-29T02:06:53.072Z,0.00
2023-05-29T02:07:53.096Z,0.00
2023-05-29T02:08:53.079Z,0.00
2023-05-29T02:09:53.047Z,0.00
2023-05-29T02:10:53.090Z,0.00
2023-05-29T02:11:53.021Z,0.00
2023-05-29T02:12:53.042Z,0.00
2023-05-29T02:13:53.003Z,0.00
2023-05-29T02:14:53.006Z,0.00
2023-05-29T02:15:52.982Z,0.00
2023-05-29T02:16:53.035Z,0.00
2023-05-29T02:17:53.020Z,0.00
2023-05-29T02:18:52.938Z,0.00
2023-05-29T02:19:52.941Z,0.00
2023-05-29T02:20:53.120Z,0.00
2023-05-29T02:21:52.906Z,0.00
2023-05-29T02:22:52.894Z,0.00
2023-05-29T02:23:52.889Z,0.00
2023-05-29T02:24:52.875Z,0.00
2023-05-29T02:25:52.876Z,0.00
2023-05-29T02:26:52.878Z,0.00
2023-05-29T02:27:52.843Z,0.00
2023-05-29T02:28:52.834Z,0.00
2023-05-29T02:29:52.844Z,0.00
2023-05-29T02:30:52.875Z,0.00
2023-05-29T02:31:52.822Z,0.00
2023-05-29T02:32:52.860Z,0.00
2023-05-29T02:33:52.783Z,0.00
2023-05-29T02:34:52.774Z,0.00
2023-05-29T02:35:52.802Z,0.00
2023-05-29T02:36:52.757Z,0.00
2023-05-29T02:37:52.755Z,0.00
2023-05-29T02:38:52.736Z,0.00
2023-05-29T02:39:52.724Z,0.00
2023-05-29T02:40:52.722Z,0.00
2023-05-29T02:41:52.717Z,0.00
2023-05-29T02:42:52.698Z,0.00
2023-05-29T02:43:52.685Z,0.00
2023-05-29T02:44:52.671Z,0.00
2023-05-29T02:45:52.701Z,0.00
2023-05-29T02:46:53.626Z,0.00
2023-05-29T02:47:52.664Z,0.00
2023-05-29T02:48:52.637Z,0.00
2023-05-29T02:49:52.573Z,1.00
2023-05-29T02:50:52.719Z,1.00
2023-05-29T02:51:52.599Z,0.00
2023-05-29T02:52:52.568Z,0.00
2023-05-29T02:53:52.573Z,0.00
2023-05-29T02:54:52.576Z,0.00
2023-05-29T02:55:52.556Z,0.00
2023-05-29T02:56:52.530Z,0.00
2023-05-29T02:57:52.540Z,0.00
2023-05-29T02:58:52.486Z,1.00
2023-05-29T02:59:52.454Z,1.00
2023-05-29T03:00:52.459Z,1.00
2023-05-29T03:01:52.533Z,1.00
2023-05-29T03:02:52.439Z,3.00
2023-05-29T03:03:52.512Z,5.00
2023-05-29T03:04:52.387Z,4.00
2023-05-29T03:05:52.416Z,4.00
2023-05-29T03:06:52.390Z,5.00
2023-05-29T03:07:52.372Z,4.00
2023-05-29T03:08:52.348Z,4.00
2023-05-29T03:09:52.338Z,3.00
2023-05-29T03:10:52.349Z,2.00
2023-05-29T03:11:52.326Z,3.00
2023-05-29T03:12:52.337Z,5.00
2023-05-29T03:13:52.296Z,3.00
2023-05-29T03:14:52.339Z,5.00
2023-05-29T03:15:52.358Z,8.00
2023-05-29T03:16:52.257Z,7.00
2023-05-29T03:17:52.298Z,9.00
2023-05-29T03:18:52.243Z,10.00
2023-05-29T03:19:52.536Z,9.00
2023-05-29T03:20:52.246Z,11.00
2023-05-29T03:21:52.223Z,12.00
2023-05-29T03:22:52.204Z,13.00
2023-05-29T03:23:52.195Z,14.00
2023-05-29T03:24:52.190Z,11.00
2023-05-29T03:25:52.165Z,18.00
2023-05-29T03:26:52.154Z,20.00
2023-05-29T03:27:52.161Z,20.00
2023-05-29T03:28:52.130Z,20.00
2023-05-29T03:29:52.141Z,19.00
2023-05-29T03:30:52.187Z,22.00
2023-05-29T03:31:52.173Z,20.00
2023-05-29T03:32:52.138Z,20.00
2023-05-29T03:33:52.084Z,24.00
2023-05-29T03:34:52.068Z,24.00
2023-05-29T03:35:52.074Z,24.00
2023-05-29T03:36:52.070Z,27.00
2023-05-29T03:37:52.046Z,30.00
2023-05-29T03:38:52.023Z,34.00
2023-05-29T03:39:52.020Z,33.00
2023-05-29T03:40:52.007Z,34.00
2023-05-29T03:41:52.007Z,34.00
2023-05-29T03:42:52.010Z,34.00
2023-05-29T03:43:51.993Z,37.00
2023-05-29T03:44:52.036Z,41.00
2023-05-29T03:45:52.006Z,44.00
2023-05-29T03:46:51.978Z,44.00
2023-05-29T03:47:52.001Z,44.00
2023-05-29T03:48:51.951Z,45.00
2023-05-29T03:49:51.915Z,48.00
2023-05-29T03:50:51.908Z,46.00
2023-05-29T03:51:51.900Z,49.00
2023-05-29T03:52:51.889Z,54.00
2023-05-29T03:53:51.875Z,59.00
2023-05-29T03:54:51.881Z,55.00
2023-05-29T03:55:51.862Z,56.00
2023-05-29T03:56:51.831Z,58.00
2023-05-29T03:57:51.836Z,62.00
2023-05-29T03:58:51.807Z,55.00
2023-05-29T03:59:51.815Z,63.00
2023-05-29T04:00:51.812Z,60.00
2023-05-29T04:01:51.799Z,60.00
2023-05-29T04:02:51.896Z,62.00
2023-05-29T04:03:51.877Z,67.00
2023-05-29T04:04:51.754Z,68.00
2023-05-29T04:05:51.766Z,71.00
2023-05-29T04:06:51.728Z,72.00
2023-05-29T04:07:56.253Z,75.00
2023-05-29T04:08:51.703Z,81.00
2023-05-29T04:09:51.714Z,78.00
2023-05-29T04:10:51.678Z,83.00
2023-05-29T04:11:51.679Z,84.00
2023-05-29T04:12:51.664Z,87.00
2023-05-29T04:13:51.656Z,96.00
2023-05-29T04:14:51.635Z,101.00
2023-05-29T04:15:51.667Z,92.00
2023-05-29T04:16:51.714Z,98.00
2023-05-29T04:17:51.654Z,98.00
2023-05-29T04:18:51.605Z,112.00
2023-05-29T04:19:51.594Z,104.00
2023-05-29T04:20:51.635Z,122.00
2023-05-29T04:21:51.569Z,127.00
2023-05-29T04:22:51.564Z,136.00
2023-05-29T04:23:51.548Z,140.00
2023-05-29T04:24:51.560Z,129.00
2023-05-29T04:25:51.524Z,137.00
2023-05-29T04:26:51.505Z,131.00
2023-05-29T04:27:51.500Z,135.00
2023-05-29T04:28:51.495Z,143.00
2023-05-29T04:29:51.497Z,143.00
2023-05-29T04:30:51.485Z,148.00
2023-05-29T04:31:51.468Z,149.00
2023-05-29T04:32:51.468Z,151.00
2023-05-29T04:33:51.446Z,155.00
2023-05-29T04:34:51.430Z,153.00
2023-05-29T04:35:51.425Z,150.00
2023-05-29T04:36:51.401Z,156.00
2023-05-29T04:37:51.401Z,158.00
2023-05-29T04:38:51.372Z,163.00
2023-05-29T04:39:51.375Z,167.00
2023-05-29T04:40:51.489Z,167.00
2023-05-29T04:41:51.362Z,160.00
2023-05-29T04:42:51.344Z,167.00
2023-05-29T04:43:51.336Z,165.00
2023-05-29T04:44:51.307Z,164.00
2023-05-29T04:45:51.316Z,168.00
2023-05-29T04:46:51.352Z,168.00
2023-05-29T04:47:51.338Z,171.00
2023-05-29T04:48:51.270Z,166.00
2023-05-29T04:49:51.283Z,163.00
2023-05-29T04:50:51.250Z,170.00
2023-05-29T04:51:51.237Z,177.00
2023-05-29T04:52:51.232Z,182.00
2023-05-29T04:53:51.229Z,193.00
2023-05-29T04:54:51.205Z,194.00
2023-05-29T04:55:51.206Z,200.00
2023-05-29T04:56:51.194Z,203.00
2023-05-29T04:57:51.176Z,204.00
2023-05-29T04:58:51.168Z,203.00
2023-05-29T04:59:51.171Z,205.00
2023-05-29T05:00:51.148Z,207.00
2023-05-29T05:01:51.178Z,209.00
2023-05-29T05:02:51.155Z,220.00
2023-05-29T05:03:51.160Z,222.00
2023-05-29T05:04:51.108Z,222.00
2023-05-29T05:05:51.108Z,230.00
2023-05-29T05:06:51.088Z,225.00
2023-05-29T05:07:51.094Z,220.00
2023-05-29T05:08:51.062Z,221.00
2023-05-29T05:09:51.054Z,226.00
2023-05-29T05:10:51.044Z,231.00
2023-05-29T05:11:51.031Z,233.00
2023-05-29T05:12:51.022Z,234.00
2023-05-29T05:13:51.012Z,236.00
2023-05-29T05:14:51.028Z,238.00
2023-05-29T05:15:50.995Z,229.00
2023-05-29T05:16:51.016Z,237.00
2023-05-29T05:17:51.090Z,239.00
2023-05-29T05:18:50.954Z,240.00
2023-05-29T05:19:50.958Z,246.00
2023-05-29T05:20:50.954Z,243.00
2023-05-29T05:21:52.978Z,246.00
2023-05-29T05:22:50.924Z,257.00
2023-05-29T05:23:58.210Z,256.00
2023-05-29T05:24:50.930Z,256.00
2023-05-29T05:25:50.906Z,259.00
2023-05-29T05:26:50.867Z,261.00
2023-05-29T05:27:50.855Z,258.00
2023-05-29T05:28:50.845Z,255.00
2023-05-29T05:29:50.898Z,256.00
2023-05-29T05:30:50.831Z,259.00
2023-05-29T05:31:50.841Z,257.00
2023-05-29T05:32:50.870Z,259.00
2023-05-29T05:33:50.862Z,260.00
2023-05-29T05:34:50.809Z,259.00
2023-05-29T05:35:50.791Z,261.00
2023-05-29T05:36:50.790Z,257.00
2023-05-29T05:37:50.763Z,254.00
2023-05-29T05:38:50.754Z,252.00
2023-05-29T05:39:50.746Z,252.00
2023-05-29T05:40:50.726Z,258.00
2023-05-29T05:41:50.740Z,252.00
2023-05-29T05:42:50.703Z,256.00
2023-05-29T05:43:50.689Z,262.00
2023-05-29T05:44:50.683Z,276.00
2023-05-29T05:45:50.693Z,265.00
2023-05-29T05:46:50.673Z,261.00
2023-05-29T05:47:50.705Z,265.00
2023-05-29T05:48:50.660Z,265.00
2023-05-29T05:49:50.616Z,273.00
2023-05-29T05:50:50.621Z,260.00
2023-05-29T05:51:50.880Z,309.00
2023-05-29T05:52:50.591Z,236.00
2023-05-29T05:53:50.586Z,214.00
2023-05-29T05:54:50.578Z,247.00
2023-05-29T05:55:50.555Z,250.00
2023-05-29T05:56:50.558Z,248.00
2023-05-29T05:57:50.567Z,254.00
2023-05-29T05:58:50.527Z,270.00
2023-05-29T05:59:50.519Z,264.00
2023-05-29T06:00:50.527Z,268.00
2023-05-29T06:01:50.501Z,262.00
2023-05-29T06:02:50.561Z,255.00
2023-05-29T06:03:50.552Z,251.00
2023-05-29T06:04:50.597Z,255.00
2023-05-29T06:05:50.471Z,254.00
2023-05-29T06:06:50.482Z,261.00
2023-05-29T06:07:50.449Z,248.00
2023-05-29T06:08:50.424Z,246.00
2023-05-29T06:09:50.414Z,266.00
2023-05-29T06:10:50.407Z,255.00
2023-05-29T06:11:50.402Z,259.00
2023-05-29T06:12:50.389Z,264.00
2023-05-29T06:13:50.381Z,261.00
2023-05-29T06:14:50.357Z,264.00
2023-05-29T06:15:50.390Z,239.00
2023-05-29T06:16:50.356Z,234.00
2023-05-29T06:17:50.357Z,263.00
2023-05-29T06:18:50.333Z,226.00
2023-05-29T06:19:50.304Z,238.00
2023-05-29T06:20:50.321Z,271.00
2023-05-29T06:21:50.289Z,280.00
2023-05-29T06:22:50.283Z,265.00
2023-05-29T06:23:50.264Z,257.00
2023-05-29T06:24:50.263Z,265.00
2023-05-29T06:25:50.245Z,266.00
2023-05-29T06:26:50.252Z,225.00
2023-05-29T06:27:50.226Z,230.00
2023-05-29T06:28:50.205Z,250.00
2023-05-29T06:29:50.224Z,274.00
2023-05-29T06:30:50.215Z,257.00
2023-05-29T06:31:50.197Z,246.00
2023-05-29T06:32:50.191Z,239.00
2023-05-29T06:33:50.157Z,252.00
2023-05-29T06:34:50.152Z,272.00
2023-05-29T06:35:50.142Z,257.00
2023-05-29T06:36:50.124Z,240.00
2023-05-29T06:37:50.948Z,289.00
2023-05-29T06:38:50.155Z,288.00
2023-05-29T06:39:50.127Z,284.00
2023-05-29T06:40:50.094Z,270.00
2023-05-29T06:41:50.084Z,282.00
2023-05-29T06:42:50.091Z,267.00
2023-05-29T06:43:50.943Z,283.00
2023-05-29T06:44:50.114Z,292.00
2023-05-29T06:45:50.038Z,278.00
2023-05-29T06:46:50.075Z,297.00
2023-05-29T06:47:50.084Z,272.00
2023-05-29T06:48:50.012Z,278.00
2023-05-29T06:49:49.985Z,278.00
2023-05-29T06:50:49.983Z,280.00
2023-05-29T06:51:49.959Z,280.00
2023-05-29T06:52:49.964Z,274.00
2023-05-29T06:53:49.946Z,282.00
2023-05-29T06:54:49.951Z,282.00
2023-05-29T06:55:49.938Z,290.00
2023-05-29T06:56:58.432Z,262.00
2023-05-29T06:57:49.901Z,285.00
2023-05-29T06:58:49.895Z,281.00
2023-05-29T06:59:49.884Z,267.00
2023-05-29T07:00:49.935Z,268.00
2023-05-29T07:01:49.887Z,266.00
2023-05-29T07:02:49.900Z,264.00
2023-05-29T07:03:49.878Z,262.00
2023-05-29T07:04:49.816Z,271.00
2023-05-29T07:05:49.809Z,267.00
2023-05-29T07:06:49.798Z,268.00
2023-05-29T07:07:49.805Z,265.00
2023-05-29T07:08:49.789Z,273.00
2023-05-29T07:09:49.759Z,277.00
2023-05-29T07:10:49.758Z,277.00
2023-05-29T07:11:49.743Z,271.00
2023-05-29T07:12:49.755Z,287.00
2023-05-29T07:13:49.735Z,278.00
2023-05-29T07:14:49.710Z,289.00
2023-05-29T07:15:49.707Z,280.00
2023-05-29T07:16:49.747Z,282.00
2023-05-29T07:17:49.731Z,268.00
2023-05-29T07:18:49.676Z,298.00
2023-05-29T07:19:49.639Z,287.00
2023-05-29T07:20:49.689Z,274.00
2023-05-29T07:21:49.832Z,274.00
2023-05-29T07:22:49.726Z,248.00
2023-05-29T07:23:49.618Z,285.00
2023-05-29T07:24:49.598Z,289.00
2023-05-29T07:25:49.593Z,291.00
2023-05-29T07:26:49.585Z,286.00
2023-05-29T07:27:49.560Z,290.00
2023-05-29T07:28:49.582Z,294.00
2023-05-29T07:29:49.578Z,290.00
2023-05-29T07:30:49.539Z,296.00
2023-05-29T07:31:49.534Z,305.00
2023-05-29T07:32:49.528Z,272.00
2023-05-29T07:33:49.487Z,292.00
2023-05-29T07:34:49.491Z,294.00
2023-05-29T07:35:49.487Z,298.00
2023-05-29T07:36:49.470Z,295.00
2023-05-29T07:37:49.440Z,282.00
2023-05-29T07:38:49.434Z,288.00
2023-05-29T07:39:49.444Z,292.00
2023-05-29T07:40:49.416Z,288.00
2023-05-29T07:41:49.450Z,278.00
2023-05-29T07:42:49.420Z,263.00
2023-05-29T07:43:49.380Z,276.00
2023-05-29T07:44:49.379Z,250.00
2023-05-29T07:45:49.389Z,277.00
2023-05-29T07:46:49.444Z,279.00
2023-05-29T07:47:49.366Z,278.00
2023-05-29T07:48:49.351Z,275.00
2023-05-29T07:49:49.317Z,271.00
2023-05-29T07:50:49.317Z,277.00
2023-05-29T07:51:49.315Z,277.00
2023-05-29T07:52:49.289Z,299.00
2023-05-29T07:53:49.285Z,278.00
2023-05-29T07:54:49.293Z,295.00
2023-05-29T07:55:49.248Z,290.00
2023-05-29T07:56:49.246Z,293.00
2023-05-29T07:57:49.233Z,305.00
2023-05-29T07:58:49.223Z,304.00
2023-05-29T07:59:49.209Z,303.00
2023-05-29T08:00:49.206Z,294.00
2023-05-29T08:01:49.190Z,314.00
2023-05-29T08:02:49.345Z,313.00
2023-05-29T08:03:49.229Z,314.00
2023-05-29T08:04:49.236Z,326.00
2023-05-29T08:05:49.168Z,285.00
2023-05-29T08:06:49.138Z,305.00
2023-05-29T08:07:49.124Z,309.00
2023-05-29T08:08:49.145Z,284.00
2023-05-29T08:09:49.098Z,297.00
2023-05-29T08:10:49.098Z,279.00
2023-05-29T08:11:49.081Z,302.00
2023-05-29T08:12:49.094Z,307.00
2023-05-29T08:13:49.051Z,316.00
2023-05-29T08:14:49.054Z,307.00
2023-05-29T08:15:49.073Z,317.00
2023-05-29T08:16:49.079Z,267.00
2023-05-29T08:17:49.046Z,346.00
2023-05-29T08:18:49.021Z,341.00
2023-05-29T08:19:49.001Z,331.00
2023-05-29T08:20:49.040Z,368.00
2023-05-29T08:21:48.984Z,371.00
2023-05-29T08:22:48.968Z,368.00
2023-05-29T08:23:48.982Z,375.00
2023-05-29T08:24:48.997Z,379.00
2023-05-29T08:25:48.939Z,369.00
2023-05-29T08:26:48.928Z,380.00
2023-05-29T08:27:48.903Z,379.00
2023-05-29T08:28:48.942Z,374.00
2023-05-29T08:29:48.954Z,374.00
2023-05-29T08:30:48.893Z,375.00
2023-05-29T08:31:48.918Z,372.00
2023-05-29T08:32:48.931Z,362.00
2023-05-29T08:33:48.835Z,368.00
2023-05-29T08:34:48.826Z,371.00
2023-05-29T08:35:48.833Z,342.00
2023-05-29T08:36:48.826Z,348.00
2023-05-29T08:37:48.854Z,345.00
2023-05-29T08:38:48.809Z,340.00
2023-05-29T08:39:48.804Z,334.00
2023-05-29T08:40:48.769Z,310.00
2023-05-29T08:41:48.766Z,345.00
2023-05-29T08:42:48.764Z,361.00
2023-05-29T08:43:48.730Z,369.00
2023-05-29T08:44:48.726Z,342.00
2023-05-29T08:45:48.778Z,380.00
2023-05-29T08:46:48.710Z,386.00
2023-05-29T08:47:48.761Z,355.00
2023-05-29T08:48:48.689Z,354.00
2023-05-29T08:49:48.680Z,345.00
2023-05-29T08:50:48.676Z,341.00
2023-05-29T08:51:48.649Z,359.00
2023-05-29T08:52:48.652Z,370.00
2023-05-29T08:53:48.629Z,359.00
2023-05-29T08:54:48.632Z,355.00
2023-05-29T08:55:48.609Z,365.00
2023-05-29T08:56:48.599Z,356.00
2023-05-29T08:57:48.586Z,367.00
2023-05-29T08:58:48.614Z,356.00
2023-05-29T08:59:48.575Z,355.00
2023-05-29T09:00:48.563Z,373.00
2023-05-29T09:01:48.536Z,367.00
2023-05-29T09:02:48.667Z,389.00
2023-05-29T09:03:48.588Z,336.00
2023-05-29T09:04:48.508Z,368.00
2023-05-29T09:05:48.538Z,371.00
2023-05-29T09:06:48.532Z,362.00
2023-05-29T09:07:48.478Z,354.00
2023-05-29T09:08:48.476Z,358.00
2023-05-29T09:09:48.478Z,342.00
2023-05-29T09:10:48.447Z,332.00
2023-05-29T09:11:48.455Z,359.00
2023-05-29T09:12:48.454Z,338.00
2023-05-29T09:13:48.409Z,369.00
2023-05-29T09:14:48.530Z,325.00
2023-05-29T09:15:48.439Z,350.00
2023-05-29T09:16:48.404Z,313.00
2023-05-29T09:17:48.451Z,325.00
2023-05-29T09:18:48.383Z,347.00
2023-05-29T09:19:48.344Z,319.00
2023-05-29T09:20:48.365Z,322.00
2023-05-29T09:21:48.331Z,339.00
2023-05-29T09:22:48.315Z,323.00
2023-05-29T09:23:48.302Z,339.00
2023-05-29T09:24:48.336Z,339.00
2023-05-29T09:25:48.280Z,296.00
2023-05-29T09:26:48.271Z,354.00
2023-05-29T09:27:48.278Z,355.00
2023-05-29T09:28:48.312Z,349.00
2023-05-29T09:29:48.242Z,338.00
2023-05-29T09:30:48.319Z,340.00
2023-05-29T09:31:48.237Z,382.00
2023-05-29T09:32:48.216Z,344.00
2023-05-29T09:33:48.192Z,330.00
2023-05-29T09:34:48.212Z,349.00
2023-05-29T09:35:48.173Z,354.00
2023-05-29T09:36:48.166Z,365.00
2023-05-29T09:37:48.170Z,336.00
2023-05-29T09:38:51.494Z,356.00
2023-05-29T09:39:48.143Z,349.00
2023-05-29T09:40:48.155Z,353.00
2023-05-29T09:41:48.115Z,354.00
2023-05-29T09:42:48.107Z,345.00
2023-05-29T09:43:48.097Z,349.00
2023-05-29T09:44:48.071Z,350.00
2023-05-29T09:45:48.084Z,342.00
2023-05-29T09:46:48.096Z,360.00
2023-05-29T09:47:48.101Z,335.00
2023-05-29T09:48:48.036Z,334.00
2023-05-29T09:49:48.052Z,340.00
2023-05-29T09:50:48.011Z,348.00
2023-05-29T09:51:48.008Z,324.00
2023-05-29T09:52:47.989Z,322.00
2023-05-29T09:53:47.981Z,317.00
2023-05-29T09:54:48.062Z,315.00
2023-05-29T09:55:47.954Z,322.00
2023-05-29T09:56:47.975Z,358.00
2023-05-29T09:57:47.940Z,345.00
2023-05-29T09:58:47.947Z,302.00
2023-05-29T09:59:47.990Z,335.00
2023-05-29T10:00:47.898Z,327.00
2023-05-29T10:01:47.966Z,329.00
2023-05-29T10:02:47.972Z,344.00
2023-05-29T10:03:47.930Z,332.00
2023-05-29T10:04:47.865Z,327.00
2023-05-29T10:05:47.868Z,357.00
2023-05-29T10:06:47.890Z,358.00
2023-05-29T10:07:47.832Z,334.00
2023-05-29T10:08:47.814Z,339.00
2023-05-29T10:09:47.814Z,334.00
2023-05-29T10:10:47.790Z,337.00
2023-05-29T10:11:47.790Z,335.00
2023-05-29T10:12:47.783Z,328.00
2023-05-29T10:13:47.763Z,366.00
2023-05-29T10:14:47.755Z,315.00
2023-05-29T10:15:47.747Z,345.00
2023-05-29T10:16:47.815Z,349.00
2023-05-29T10:17:47.759Z,356.00
2023-05-29T10:18:47.724Z,339.00
2023-05-29T10:19:47.733Z,354.00
2023-05-29T10:20:47.794Z,354.00
2023-05-29T10:21:47.704Z,380.00
2023-05-29T10:22:47.684Z,327.00
2023-05-29T10:23:47.668Z,372.00
2023-05-29T10:24:47.680Z,339.00
2023-05-29T10:25:47.644Z,353.00
2023-05-29T10:26:48.032Z,323.00
2023-05-29T10:27:47.610Z,359.00
2023-05-29T10:28:47.603Z,328.00
2023-05-29T10:29:47.616Z,325.00
2023-05-29T10:30:47.596Z,330.00
2023-05-29T10:31:47.708Z,386.00
2023-05-29T10:32:49.016Z,326.00
2023-05-29T10:33:47.596Z,347.00
2023-05-29T10:34:47.533Z,321.00
2023-05-29T10:35:47.552Z,337.00
2023-05-29T10:36:47.519Z,327.00
2023-05-29T10:37:47.508Z,324.00
2023-05-29T10:38:47.494Z,341.00
2023-05-29T10:39:47.503Z,311.00
2023-05-29T10:40:47.479Z,314.00
2023-05-29T10:41:47.469Z,322.00
2023-05-29T10:42:50.617Z,322.00
2023-05-29T10:43:47.445Z,321.00
2023-05-29T10:44:47.434Z,318.00
2023-05-29T10:45:47.579Z,332.00
2023-05-29T10:46:47.484Z,308.00
2023-05-29T10:47:47.433Z,331.00
2023-05-29T10:48:47.389Z,328.00
2023-05-29T10:49:47.376Z,322.00
2023-05-29T10:50:47.361Z,313.00
2023-05-29T10:51:47.362Z,331.00
2023-05-29T10:52:47.340Z,313.00
2023-05-29T10:53:47.332Z,322.00
2023-05-29T10:54:47.340Z,313.00
2023-05-29T10:55:47.311Z,310.00
2023-05-29T10:56:47.289Z,322.00
2023-05-29T10:57:47.311Z,331.00
2023-05-29T10:58:47.267Z,303.00
2023-05-29T10:59:47.266Z,319.00
2023-05-29T11:00:47.263Z,316.00
2023-05-29T11:01:47.281Z,315.00
2023-05-29T11:02:47.260Z,316.00
2023-05-29T11:03:47.242Z,320.00
2023-05-29T11:04:47.201Z,307.00
2023-05-29T11:05:47.215Z,318.00
2023-05-29T11:06:47.268Z,302.00
2023-05-29T11:07:47.181Z,308.00
2023-05-29T11:08:47.250Z,311.00
2023-05-29T11:09:47.174Z,309.00
2023-05-29T11:10:47.165Z,309.00
2023-05-29T11:11:47.144Z,300.00
2023-05-29T11:12:47.122Z,313.00
2023-05-29T11:13:47.119Z,318.00
2023-05-29T11:14:47.102Z,294.00
2023-05-29T11:15:47.099Z,296.00
2023-05-29T11:16:47.093Z,314.00
2023-05-29T11:17:47.103Z,307.00
2023-05-29T11:18:47.128Z,291.00
2023-05-29T11:19:47.055Z,310.00
2023-05-29T11:20:47.191Z,336.00
2023-05-29T11:21:47.051Z,313.00
2023-05-29T11:22:47.003Z,291.00
2023-05-29T11:23:47.012Z,305.00
2023-05-29T11:24:47.010Z,314.00
2023-05-29T11:25:46.977Z,305.00
2023-05-29T11:26:47.000Z,305.00
2023-05-29T11:27:46.957Z,311.00
2023-05-29T11:28:46.986Z,307.00
2023-05-29T11:29:46.946Z,299.00
2023-05-29T11:30:46.935Z,305.00
2023-05-29T11:31:46.968Z,298.00
2023-05-29T11:32:46.910Z,283.00
2023-05-29T11:33:46.936Z,299.00
2023-05-29T11:34:46.894Z,309.00
2023-05-29T11:35:46.890Z,307.00
2023-05-29T11:36:46.870Z,296.00
2023-05-29T11:37:46.865Z,288.00
2023-05-29T11:38:46.838Z,302.00
2023-05-29T11:39:46.831Z,297.00
2023-05-29T11:40:46.853Z,297.00
2023-05-29T11:41:46.815Z,304.00
2023-05-29T11:42:46.801Z,292.00
2023-05-29T11:43:46.787Z,283.00
2023-05-29T11:44:46.766Z,297.00
2023-05-29T11:45:46.778Z,293.00
2023-05-29T11:46:46.819Z,298.00
2023-05-29T11:47:46.789Z,298.00
2023-05-29T11:48:46.728Z,299.00
2023-05-29T11:49:46.733Z,293.00
2023-05-29T11:50:46.708Z,293.00
2023-05-29T11:51:46.700Z,295.00
2023-05-29T11:52:46.684Z,300.00
2023-05-29T11:53:46.696Z,298.00
2023-05-29T11:54:46.666Z,289.00
2023-05-29T11:55:46.672Z,290.00
2023-05-29T11:56:46.658Z,298.00
2023-05-29T11:57:46.628Z,288.00
2023-05-29T11:58:46.620Z,292.00
2023-05-29T11:59:46.615Z,298.00
2023-05-29T12:00:46.606Z,293.00
2023-05-29T12:01:46.608Z,289.00
2023-05-29T12:02:46.715Z,293.00
2023-05-29T12:03:46.604Z,286.00
2023-05-29T12:04:46.563Z,290.00
2023-05-29T12:05:46.610Z,290.00
2023-05-29T12:06:46.540Z,293.00
2023-05-29T12:07:46.537Z,289.00
2023-05-29T12:08:46.586Z,298.00
2023-05-29T12:09:46.496Z,298.00
2023-05-29T12:10:46.490Z,287.00
2023-05-29T12:11:46.490Z,327.00
2023-05-29T12:12:46.502Z,256.00
2023-05-29T12:13:46.550Z,285.00
2023-05-29T12:14:46.441Z,283.00
2023-05-29T12:15:46.521Z,286.00
2023-05-29T12:16:46.784Z,280.00
2023-05-29T12:17:46.564Z,283.00
2023-05-29T12:18:46.409Z,288.00
2023-05-29T12:19:46.487Z,292.00
2023-05-29T12:20:46.642Z,277.00
2023-05-29T12:21:46.366Z,294.00
2023-05-29T12:22:46.356Z,279.00
2023-05-29T12:23:46.352Z,284.00
2023-05-29T12:24:46.335Z,283.00
2023-05-29T12:25:46.344Z,285.00
2023-05-29T12:26:46.316Z,270.00
2023-05-29T12:27:46.309Z,307.00
2023-05-29T12:28:46.287Z,248.00
2023-05-29T12:29:46.306Z,264.00
2023-05-29T12:30:46.272Z,270.00
2023-05-29T12:31:46.315Z,279.00
2023-05-29T12:32:46.416Z,266.00
2023-05-29T12:33:46.255Z,276.00
2023-05-29T12:34:46.219Z,278.00
2023-05-29T12:35:46.235Z,276.00
2023-05-29T12:36:46.217Z,257.00
2023-05-29T12:37:46.188Z,257.00
2023-05-29T12:38:46.180Z,260.00
2023-05-29T12:39:46.181Z,272.00
2023-05-29T12:40:46.154Z,281.00
2023-05-29T12:41:46.161Z,280.00
2023-05-29T12:42:46.154Z,276.00